createdAt,value
2023-03-16T00:02:06.587Z,101581.40
2023-03-16T00:07:13.890Z,101585.89
2023-03-16T00:12:19.993Z,101589.45
2023-03-16T00:17:26.841Z,101589.40
2023-03-16T00:22:32.319Z,101592.59
2023-03-16T00:27:38.167Z,101589.13
2023-03-16T00:32:43.579Z,101590.19
2023-03-16T00:37:48.968Z,101590.40
2023-03-16T00:42:55.215Z,101596.64
2023-03-16T00:48:02.143Z,101597.17
2023-03-16T00:53:07.484Z,101599.13
2023-03-16T00:58:15.002Z,101603.12
2023-03-16T01:03:20.411Z,101607.76
2023-03-16T01:08:27.945Z,101610.50
2023-03-16T01:13:33.460Z,101608.34
2023-03-16T01:18:39.237Z,101605.64
2023-03-16T01:23:45.217Z,101607.55
2023-03-16T01:28:50.861Z,101610.76
2023-03-16T01:33:56.530Z,101607.52
2023-03-16T01:39:01.791Z,101607.55
2023-03-16T01:44:11.387Z,101605.10
2023-03-16T01:49:20.651Z,101606.90
2023-03-16T01:54:29.872Z,101606.24
2023-03-16T01:59:38.776Z,101605.35
2023-03-16T02:04:50.814Z,101603.73
2023-03-16T02:10:01.008Z,101605.09
2023-03-16T02:15:08.386Z,101602.21
2023-03-16T02:20:29.073Z,101599.84
2023-03-16T02:25:45.134Z,101600.70
2023-03-16T02:30:51.371Z,101603.78
2023-03-16T02:35:56.817Z,101596.95
2023-03-16T02:41:12.190Z,101599.77
2023-03-16T02:46:20.173Z,101598.70
2023-03-16T02:51:25.491Z,101602.19
2023-03-16T02:56:30.894Z,101604.31
2023-03-16T03:01:36.685Z,101607.59
2023-03-16T03:06:42.218Z,101612.45
2023-03-16T03:11:47.716Z,101619.08
2023-03-16T03:16:53.003Z,101625.11
2023-03-16T03:21:58.480Z,101628.02
2023-03-16T03:27:05.960Z,101634.46
2023-03-16T03:32:12.142Z,101639.73
2023-03-16T03:37:18.263Z,101641.48
2023-03-16T03:42:24.049Z,101639.38
2023-03-16T03:47:29.401Z,101638.39
2023-03-16T03:52:34.866Z,101640.17
2023-03-16T03:57:41.147Z,101640.93
2023-03-16T04:02:47.025Z,101641.69
2023-03-16T04:07:55.291Z,101646.04
2023-03-16T04:13:01.470Z,101644.47
2023-03-16T04:18:06.829Z,101640.77
2023-03-16T04:23:12.189Z,101635.80
2023-03-16T04:28:18.035Z,101637.58
2023-03-16T04:33:23.782Z,101638.45
2023-03-16T04:38:29.357Z,101640.09
2023-03-16T04:43:36.310Z,101641.32
2023-03-16T04:48:41.706Z,101647.45
2023-03-16T04:53:47.036Z,101649.26
2023-03-16T04:58:52.413Z,101650.77
2023-03-16T05:03:59.681Z,101654.09
2023-03-16T05:09:08.050Z,101655.27
2023-03-16T05:14:13.403Z,101660.55
2023-03-16T05:19:19.321Z,101668.21
2023-03-16T05:24:24.709Z,101663.34
2023-03-16T05:29:31.304Z,101665.35
2023-03-16T05:34:36.709Z,101669.77
2023-03-16T05:39:42.053Z,101674.05
2023-03-16T05:44:47.440Z,101671.79
2023-03-16T05:49:53.350Z,101678.77
2023-03-16T05:54:58.835Z,101680.45
2023-03-16T06:00:16.202Z,101690.55
2023-03-16T06:05:23.156Z,101696.35
2023-03-16T06:10:28.795Z,101700.08
2023-03-16T06:15:34.422Z,101696.95
2023-03-16T06:20:39.698Z,101700.03
2023-03-16T06:25:46.429Z,101702.64
2023-03-16T06:30:55.322Z,101702.00
2023-03-16T06:36:01.818Z,101708.22
2023-03-16T06:41:07.254Z,101719.93
2023-03-16T06:46:12.912Z,101721.71
2023-03-16T06:51:18.223Z,101732.83
2023-03-16T06:56:24.231Z,101734.56
2023-03-16T07:01:29.903Z,101732.16
2023-03-16T07:06:35.332Z,101737.02
2023-03-16T07:11:41.032Z,101742.36
2023-03-16T07:16:46.487Z,101751.15
2023-03-16T07:21:51.994Z,101757.94
2023-03-16T07:26:57.273Z,101756.67
2023-03-16T07:32:04.011Z,101757.90
2023-03-16T07:37:10.044Z,101767.56
2023-03-16T07:42:15.581Z,101773.02
2023-03-16T07:47:21.145Z,101775.51
2023-03-16T07:52:26.702Z,101772.14
2023-03-16T07:57:32.043Z,101770.77
2023-03-16T08:02:37.506Z,101773.19
2023-03-16T08:07:43.148Z,101784.70
2023-03-16T08:12:48.530Z,101784.41
2023-03-16T08:17:54.224Z,101779.98
2023-03-16T08:22:59.805Z,101779.05
2023-03-16T08:28:06.054Z,101779.72
2023-03-16T08:33:11.645Z,101772.67
2023-03-16T08:38:17.275Z,101778.39
2023-03-16T08:43:24.100Z,101780.73
2023-03-16T08:48:29.606Z,101780.80
2023-03-16T08:53:36.759Z,101784.17
2023-03-16T08:58:46.149Z,101793.11
2023-03-16T09:03:52.855Z,101794.80
2023-03-16T09:08:58.853Z,101796.27
2023-03-16T09:14:04.650Z,101799.52
2023-03-16T09:19:13.574Z,101799.77
2023-03-16T09:24:19.335Z,101799.10
2023-03-16T09:29:24.856Z,101805.16
2023-03-16T09:34:30.606Z,101810.08
2023-03-16T09:39:37.118Z,101811.38
2023-03-16T09:44:54.163Z,101812.91
2023-03-16T09:50:03.227Z,101809.23
2023-03-16T09:55:26.043Z,101813.06
2023-03-16T10:00:37.632Z,101813.50
2023-03-16T10:05:43.884Z,101818.59
2023-03-16T10:11:14.380Z,101818.50
2023-03-16T10:16:25.561Z,101812.48
2023-03-16T10:21:38.804Z,101809.02
2023-03-16T10:26:54.582Z,101806.36
2023-03-16T10:32:11.931Z,101805.09
2023-03-16T10:37:17.214Z,101797.89
2023-03-16T10:42:24.107Z,101793.46
2023-03-16T10:47:32.866Z,101793.31
2023-03-16T10:52:43.231Z,101793.70
2023-03-16T10:57:53.636Z,101795.77
2023-03-16T11:03:02.613Z,101794.02
2023-03-16T11:08:13.210Z,101795.43
2023-03-16T11:13:20.993Z,101789.42
2023-03-16T11:18:33.974Z,101781.80
2023-03-16T11:23:45.987Z,101773.00
2023-03-16T11:29:01.731Z,101771.16
2023-03-16T11:34:14.643Z,101769.61
2023-03-16T11:39:31.994Z,101764.63
2023-03-16T11:44:44.719Z,101762.91
2023-03-16T11:49:58.810Z,101755.05
2023-03-16T11:55:19.575Z,101746.63
2023-03-16T12:00:38.579Z,101745.14
2023-03-16T12:05:59.291Z,101738.16
2023-03-16T12:11:10.343Z,101732.86
2023-03-16T12:16:21.586Z,101727.69
2023-03-16T12:21:32.342Z,101724.05
2023-03-16T12:26:42.439Z,101718.35
2023-03-16T12:31:55.903Z,101717.91
2023-03-16T12:37:15.119Z,101711.31
2023-03-16T12:42:35.885Z,101699.11
2023-03-16T12:47:49.690Z,101701.52
2023-03-16T12:52:55.806Z,101692.48
2023-03-16T12:58:06.207Z,101691.52
2023-03-16T13:03:19.952Z,101682.60
2023-03-16T13:08:27.718Z,101677.88
2023-03-16T13:13:34.267Z,101672.21
2023-03-16T13:18:45.166Z,101665.41
2023-03-16T13:23:59.693Z,101661.19
2023-03-16T13:29:19.049Z,101659.67
2023-03-16T13:34:29.799Z,101667.07
2023-03-16T13:39:35.358Z,101667.02
2023-03-16T13:44:42.820Z,101662.06
2023-03-16T13:49:50.855Z,101660.02
2023-03-16T13:54:58.760Z,101650.21
2023-03-16T14:00:18.300Z,101647.14
2023-03-16T14:05:26.210Z,101639.08
2023-03-16T14:10:35.433Z,101628.23
2023-03-16T14:15:41.179Z,101630.34
2023-03-16T14:20:47.030Z,101628.23
2023-03-16T14:25:53.621Z,101623.30
2023-03-16T14:31:06.553Z,101624.25
2023-03-16T14:36:15.451Z,101619.85
2023-03-16T14:41:25.931Z,101610.52
2023-03-16T14:46:33.986Z,101597.59
2023-03-16T14:51:40.832Z,101591.31
2023-03-16T14:56:50.381Z,101577.73
2023-03-16T15:01:56.836Z,101581.52
2023-03-16T15:07:07.767Z,101577.12
2023-03-16T15:12:18.105Z,101569.21
2023-03-16T15:17:23.716Z,101564.21
2023-03-16T15:22:32.437Z,101551.95
2023-03-16T15:27:37.796Z,101555.13
2023-03-16T15:32:43.218Z,101562.71
2023-03-16T15:37:48.898Z,101559.45
2023-03-16T15:42:54.457Z,101545.89
2023-03-16T15:48:00.447Z,101548.45
2023-03-16T15:53:09.142Z,101538.33
2023-03-16T15:58:20.365Z,101535.13
2023-03-16T16:03:27.488Z,101536.80
2023-03-16T16:08:32.803Z,101534.46
2023-03-16T16:13:44.751Z,101535.32
2023-03-16T16:18:50.924Z,101532.59
2023-03-16T16:23:56.985Z,101534.83
2023-03-16T16:29:05.966Z,101536.95
2023-03-16T16:34:15.946Z,101534.83
2023-03-16T16:39:22.012Z,101538.34
2023-03-16T16:44:31.989Z,101540.06
2023-03-16T16:49:39.251Z,101532.45
2023-03-16T16:54:44.533Z,101526.55
2023-03-16T16:59:50.028Z,101524.38
2023-03-16T17:04:55.452Z,101518.38
2023-03-16T17:10:01.149Z,101515.30
2023-03-16T17:15:24.834Z,101512.83
2023-03-16T17:20:31.253Z,101517.97
2023-03-16T17:25:36.737Z,101525.14
2023-03-16T17:30:42.740Z,101530.25
2023-03-16T17:35:48.771Z,101528.36
2023-03-16T17:40:55.070Z,101526.77
2023-03-16T17:46:01.699Z,101531.06
2023-03-16T17:51:10.822Z,101533.88
2023-03-16T17:56:21.921Z,101537.55
2023-03-16T18:01:33.565Z,101528.83
2023-03-16T18:06:39.019Z,101514.17
2023-03-16T18:11:49.050Z,101509.66
2023-03-16T18:16:54.729Z,101519.04
2023-03-16T18:22:00.150Z,101521.98
2023-03-16T18:27:06.641Z,101521.07
2023-03-16T18:32:20.330Z,101516.77
2023-03-16T18:37:30.356Z,101511.50
2023-03-16T18:42:36.010Z,101516.58
2023-03-16T18:47:44.609Z,101505.73
2023-03-16T18:52:50.822Z,101500.56
2023-03-16T18:57:57.390Z,101492.92
2023-03-16T19:03:04.091Z,101492.13
2023-03-16T19:08:13.237Z,101493.34
2023-03-16T19:13:21.533Z,101489.92
2023-03-16T19:18:27.150Z,101483.06
2023-03-16T19:23:36.336Z,101480.10
2023-03-16T19:28:46.040Z,101487.69
2023-03-16T19:33:52.474Z,101495.30
2023-03-16T19:38:59.263Z,101492.40
2023-03-16T19:44:13.184Z,101502.19
2023-03-16T19:49:20.332Z,101495.83
2023-03-16T19:54:27.762Z,101476.13
2023-03-16T19:59:35.143Z,101480.96
2023-03-16T20:04:40.682Z,101491.77
2023-03-16T20:09:46.685Z,101487.44
2023-03-16T20:14:52.983Z,101488.36
2023-03-16T20:19:58.856Z,101482.30
2023-03-16T20:25:05.315Z,101473.27
2023-03-16T20:30:19.518Z,101476.15
2023-03-16T20:35:28.486Z,101482.92
2023-03-16T20:40:34.058Z,101474.55
2023-03-16T20:45:39.586Z,101475.84
2023-03-16T20:50:45.095Z,101470.63
2023-03-16T20:55:51.441Z,101466.29
2023-03-16T21:00:57.893Z,101463.98
2023-03-16T21:06:07.350Z,101466.75
2023-03-16T21:11:22.892Z,101452.27
2023-03-16T21:16:29.080Z,101449.70
2023-03-16T21:21:34.488Z,101440.73
2023-03-16T21:26:41.970Z,101429.58
2023-03-16T21:31:48.453Z,101433.58
2023-03-16T21:36:54.193Z,101420.98
2023-03-16T21:41:59.490Z,101414.29
2023-03-16T21:47:11.029Z,101410.69
2023-03-16T21:52:23.799Z,101411.31
2023-03-16T21:57:29.200Z,101403.05
2023-03-16T22:02:36.796Z,101390.56
2023-03-16T22:07:42.206Z,101381.09
2023-03-16T22:12:47.565Z,101376.88
2023-03-16T22:17:53.667Z,101371.60
2023-03-16T22:22:59.838Z,101352.44
2023-03-16T22:28:12.664Z,101359.30
2023-03-16T22:33:22.602Z,101367.77
2023-03-16T22:38:28.097Z,101352.41
2023-03-16T22:43:36.849Z,101344.27
2023-03-16T22:48:42.283Z,101340.55
2023-03-16T22:53:48.483Z,101336.97
2023-03-16T22:58:58.538Z,101336.06
2023-03-16T23:04:13.727Z,101333.84
2023-03-16T23:09:21.905Z,101329.78
2023-03-16T23:14:32.866Z,101328.73
2023-03-16T23:19:38.440Z,101331.69
2023-03-16T23:24:47.374Z,101324.77
2023-03-16T23:29:53.201Z,101316.73
2023-03-16T23:34:59.182Z,101318.39
2023-03-16T23:40:05.790Z,101307.03
2023-03-16T23:45:21.272Z,101308.25
2023-03-16T23:50:29.776Z,101304.64
2023-03-16T23:55:35.341Z,101302.48
